Notice: Undefined index: language in /home/u294900127/public_html/vam/index.php on line 31
Aeroboteco

 INFORMAÇÕES METEOROLÓGICAS
METAR FOR UKKM
ADDS - METARS form results

(2314 UTC 20 October 2017)
Data provider http://aviationweather.gov/adds/metars/
 
METAR text: UKKM 202300Z AUTO VRB01MPS 9999 ///041/// 09/06 Q1020
Conditions at: UKKM (GOSTOMEL' , UA) observed 2300 UTC 20 October 2017
Temperature: 9.0°C (48°F)
Dewpoint: 6.0°C (43°F) [RH = 81%]
Pressure (altimeter): 30.12 inches Hg (1020.0 mb)
Winds: variable direction winds at 2 MPH (2 knots; 1.0 m/s)
Visibility: 6 or more miles (10+ km)
Ceiling: unknown
Clouds: missing
Weather: no significant weather observed at this time

METAR text: UKKM 202230Z AUTO 04002MPS 330V060 9000 ///042/// 09/06 Q1020
Conditions at: UKKM (GOSTOMEL' , UA) observed 2230 UTC 20 October 2017
Temperature: 9.0°C (48°F)
Dewpoint: 6.0°C (43°F) [RH = 81%]
Pressure (altimeter): 30.12 inches Hg (1020.0 mb)
Winds: from the NE (40 degrees) at 5 MPH (4 knots; 2.1 m/s)
Visibility: 6 miles (9 km)
Ceiling: unknown
Clouds: missing
Weather: no significant weather observed at this time

Forecast for: UKKM (GOSTOMEL' , UA)
Text: TAF UKKM 201103Z 2012/2112 04005MPS 9999 BKN030
Forecast period: 1200 to 1600 UTC 20 October 2017
Forecast type: FROM: standard forecast or significant change
Winds: from the NE (40 degrees) at 12 MPH (10 knots; 5.2 m/s)
Visibility: 6 or more miles (10+ km)
Ceiling: 3000 feet AGL
Clouds: broken clouds at 3000 feet AGL
Weather: no significant weather forecast for this period
Text: BECMG 2016/2018 06003MPS
Forecast period: 1600 UTC 20 October 2017 to 1200 UTC 21 October 2017
Forecast type: BECOMING: Conditions expected to become as follows by 1800 UTC 20 October 2017
Winds: from the ENE (60 degrees) at 7 MPH (6 knots; 3.1 m/s)
Visibility: 6 or more miles (10+ km)
Ceiling: 3000 feet AGL
Clouds: broken clouds at 3000 feet AGL
Weather: no significant weather forecast for this period
Text: TEMPO 2018/2106 1000 BR BKN003
Forecast period: 1800 UTC 20 October 2017 to 0600 UTC 21 October 2017
Forecast type: TEMPORARY: The following changes expected for less than half the time period
Visibility: 0.62 miles (1.00 km)
Ceiling: 300 feet AGL
Clouds: broken clouds at 300 feet AGL
Weather: BR  (mist)

 MAPA DO AEROPORTO

 INFORMAÇÕES DA PISTA
Pista 15 Tamanho da pista 11483 ft Largura da pista 184 ft
Elevação da pista 513 ft Ranhura da pista 0 ft Proa da pista 155
Pista 33 Tamanho da pista 11483 ft Largura da pista 184 ft
Elevação da pista 506 ft Ranhura da pista 0 ft Proa da pista 335

 FREQUÊNCIAS DO AEROPORTO
Tipo TWR Nome TWR Frequência 118.15 MHZ

 AUXÍLIOS DE NAVEGAÇÃO PRÓXIMOS AO AEROPORTO
Tipo NDB Nome Antonov Frequência 257 KHZ
Tipo NDB Nome Antonov Frequência 590 KHZ
Tipo NDB Nome Antonov Frequência 534 KHZ
Tipo NDB Nome Antonov Frequência 286 KHZ



Powered by Virtual Airlines Manager [v2.6.2]